Flight Track Log - Related Links

Times and Time Zones

All times are in EDT time to prevent confusion due to time zone crossing. See the SKW5631 flight status page for this flight to view local times or setup timezone preferences in your user account.

Time Position Orientation Groundspeed Altitude Reporting Facility
EDT Latitude Longitude Course Direction KTS MPH feet Rate Location/Type
Tue 10:24:16 AM 37.6333 -122.3667 358° North 137 158 1,100  Level Northern Cal TRACON
Tue 10:25:02 AM 37.6572 -122.3678 358° North 131 151 2,600 1,947 Climbing Oakland Center
Tue 10:26:10 AM 37.6500 -122.4167 259° West 212 244 4,800 1,721 Climbing Northern Cal TRACON
Tue 10:27:04 AM 37.5981 -122.4125 176° South 198 228 6,100 1,603 Climbing Oakland Center
Tue 10:28:06 AM 37.5358 -122.4147 182° South 218 251 7,900 1,805 Climbing Oakland Center
Tue 10:29:07 AM 37.4764 -122.4208 185° South 218 251 9,800 1,721 Climbing Oakland Center
Tue 10:30:08 AM 37.4136 -122.4197 179° South 225 259 11,400 1,525 Climbing Oakland Center
Tue 10:31:09 AM 37.3322 -122.4261 184° South 244 281 12,900 1,475 Climbing Oakland Center
Tue 10:32:10 AM 37.2656 -122.4283 182° South 240 276 14,400 1,328 Climbing Oakland Center
Tue 10:33:11 AM 37.2006 -122.4322 183° South 235 270 15,600 1,230 Climbing Oakland Center
Tue 10:34:12 AM 37.1347 -122.4353 182° South 238 274 16,900 1,073 Climbing Oakland Center
Tue 10:35:14 AM 37.0675 -122.4206 170° South 263 303 17,800 976 Climbing Oakland Center
Tue 10:36:15 AM 37.0094 -122.3617 141° Southeast 269 310 18,900 1,230 Climbing Oakland Center
Tue 10:37:16 AM 36.9486 -122.3078 145° Southeast 270 311 20,300 1,180 Climbing Oakland Center
Tue 10:38:17 AM 36.8875 -122.2550 145° Southeast 270 311 21,300 885 Climbing Oakland Center
Tue 10:39:18 AM 36.8239 -122.2031 147° Southeast 275 316 22,100 787 Climbing Oakland Center
Tue 10:40:19 AM 36.7597 -122.1456 144° Southeast 282 325 22,900 443 Climbing Oakland Center
Tue 10:41:20 AM 36.6756 -122.0767 147° Southeast 303 349 23,000 49 Climbing Oakland Center
Tue 10:42:22 AM 36.6047 -122.0192 147° Southeast 305 351 23,000  Level Oakland Center
Tue 10:43:23 AM 36.5314 -121.9694 151° Southeast 301 346 23,000  Level Oakland Center
Tue 10:44:24 AM 36.4567 -121.9192 152° Southeast 306 352 23,000  Level Oakland Center
Tue 10:45:25 AM 36.3847 -121.8683 150° Southeast 300 345 23,000  Level Oakland Center
Tue 10:46:26 AM 36.3119 -121.8194 152° Southeast 298 343 23,000  Level Oakland Center
Tue 10:47:28 AM 36.2367 -121.7672 151° Southeast 299 344 23,000  Level Oakland Center
Tue 10:48:29 AM 36.1692 -121.7106 146° Southeast 294 338 23,000  Level Oakland Center
Tue 10:49:30 AM 36.1072 -121.6433 139° Southeast 297 342 23,000 -49 Level Oakland Center
Tue 10:50:31 AM 36.0444 -121.5775 140° Southeast 296 341 22,900  Descending Oakland Center
Tue 10:51:32 AM 35.9811 -121.5142 141° Southeast 294 338 23,000 49 Climbing Oakland Center
Tue 10:52:34 AM 35.9178 -121.4500 141° Southeast 294 338 23,000  Level Oakland Center
Tue 10:53:35 AM 35.8422 -121.3742 141° Southeast 293 337 23,000  Level Oakland Center
Tue 10:54:36 AM 35.7789 -121.3106 141° Southeast 294 338 23,000  Level Oakland Center
Tue 10:56:00 AM 35.7006 -121.2277 139° Southeast  Level FlightAware Approximate
Tue 11:03:00 AM 35.2988 -120.8301 138° Southeast  Level FlightAware Approximate
Tue 11:04:00 AM 35.2442 -120.7694 138° Southeast  Level FlightAware Approximate
Tue 11:05:00 AM 35.1896 -120.7087 138° Southeast  Level FlightAware Approximate
Tue 11:06:00 AM 35.1319 -120.6528 144° Southeast  Level FlightAware Approximate
Tue 11:07:00 AM 35.0719 -120.6002 144° Southeast  Level FlightAware Approximate
Tue 11:08:00 AM 35.0120 -120.5478 144° Southeast  Level FlightAware Approximate
Tue 11:09:00 AM 34.9520 -120.4954 144° Southeast  Level FlightAware Approximate
Tue 11:10:00 AM 34.8929 -120.4418 137° Southeast  Level FlightAware Approximate
Tue 11:11:00 AM 34.8391 -120.3803 137° Southeast  Level FlightAware Approximate
Tue 11:12:00 AM 34.7853 -120.3189 137° Southeast  Level FlightAware Approximate
Tue 11:13:00 AM 34.7229 -120.2713 148° Southeast  Level FlightAware Approximate
Tue 11:14:00 AM 34.6601 -120.2242 148° Southeast  Level FlightAware Approximate
Tue 11:15:00 AM 34.6022 -120.1689 141° Southeast  Level FlightAware Approximate
Tue 11:16:00 AM 34.5504 -120.1086 148° Southeast  Level FlightAware Approximate
Tue 11:17:00 AM 34.4825 -120.0833 180° South  Level FlightAware Approximate
Tue 11:18:00 AM 34.4167 -120.0738 90° East  Level FlightAware Approximate
Tue 11:19:00 AM 34.4167 -119.9844 90° East  Level FlightAware Approximate
Tue 11:20:00 AM 34.4167 -119.8950 90° East  Level FlightAware Approximate
Tue 11:21:00 AM 34.4167 -119.8333 90° East  Level FlightAware Approximate
Tue 11:22:00 AM 34.4262 -119.8415 90° East  Level Estimated
Tue 11:23:00 AM 34.4262 -119.8415 90° East  Level Estimated
Tue 11:24:00 AM 34.4262 -119.8415 90° East  Level Estimated
Tue 11:25:00 AM 34.4262 -119.8415 90° East  Level Estimated
Tue 11:26:00 AM 34.4262 -119.8415 90° East  Level Estimated
Tue 11:27:00 AM 34.4262 -119.8415 90° East  Level Estimated
Tue 11:28:00 AM 34.4262 -119.8415 90° East  Level Estimated
Tue 11:29:00 AM 34.4262 -119.8415 90° East  Level Estimated
Tue 11:30:00 AM 34.4262 -119.8415 90° East  Level Estimated
Tue 11:31:00 AM 34.4262 -119.8415 90° East  Level Estimated
Tue 11:32:00 AM 34.4262 -119.8415 90° East  Level Estimated
Tue 11:33:00 AM 34.4262 -119.8415 90° East  Level Estimated
Tue 11:34:00 AM 34.4262 -119.8415 90° East  Level Estimated
Tue 11:35:00 AM 34.4262 -119.8415 90° East  Level Estimated
Tue 11:36:00 AM 34.4262 -119.8415 90° East  Level Estimated
Tue 11:37:00 AM 34.4262 -119.8415 90° East  Level Estimated
Tue 11:38:00 AM 34.4262 -119.8415 90° East  Level Estimated

Login

Don't have an account? Register now (free) for customized features, flight alerts, and more!